sensor_id;sensor_type;location;lat;lon;timestamp;pressure;altitude;pressure_sealevel;temperature;humidity
32197;BME280;18697;42.770;23.400;2023-06-10T00:00:48;95203.03;;;22.08;66.72
32197;BME280;18697;42.770;23.400;2023-06-10T00:03:15;95193.88;;;21.81;67.45
32197;BME280;18697;42.770;23.400;2023-06-10T00:05:41;95192.28;;;21.39;69.12
32197;BME280;18697;42.770;23.400;2023-06-10T00:08:07;95192.00;;;20.63;72.69
32197;BME280;18697;42.770;23.400;2023-06-10T00:10:36;95189.81;;;20.82;72.59
32197;BME280;18697;42.770;23.400;2023-06-10T00:13:03;95201.06;;;20.43;74.61
32197;BME280;18697;42.770;23.400;2023-06-10T00:15:29;95185.84;;;20.32;75.05
32197;BME280;18697;42.770;23.400;2023-06-10T00:17:54;95180.59;;;20.10;75.98
32197;BME280;18697;42.770;23.400;2023-06-10T00:20:20;95187.69;;;20.30;75.80
32197;BME280;18697;42.770;23.400;2023-06-10T00:22:49;95186.13;;;20.74;73.49
32197;BME280;18697;42.770;23.400;2023-06-10T00:25:14;95181.22;;;21.14;71.55
32197;BME280;18697;42.770;23.400;2023-06-10T00:27:40;95187.81;;;21.43;70.57
32197;BME280;18697;42.770;23.400;2023-06-10T00:30:06;95190.09;;;21.18;71.87
32197;BME280;18697;42.770;23.400;2023-06-10T00:32:35;95190.03;;;20.71;73.97
32197;BME280;18697;42.770;23.400;2023-06-10T00:35:02;95200.97;;;20.48;75.47
32197;BME280;18697;42.770;23.400;2023-06-10T00:37:27;95205.19;;;20.10;76.70
32197;BME280;18697;42.770;23.400;2023-06-10T00:39:54;95197.00;;;19.23;82.21
32197;BME280;18697;42.770;23.400;2023-06-10T00:42:20;95206.13;;;19.29;82.18
32197;BME280;18697;42.770;23.400;2023-06-10T00:44:47;95200.19;;;19.33;82.10
32197;BME280;18697;42.770;23.400;2023-06-10T00:47:13;95204.97;;;19.38;81.85
32197;BME280;18697;42.770;23.400;2023-06-10T00:49:38;95210.41;;;19.55;80.51
32197;BME280;18697;42.770;23.400;2023-06-10T00:52:05;95213.72;;;19.91;78.85
32197;BME280;18697;42.770;23.400;2023-06-10T00:54:31;95213.56;;;20.47;75.95
32197;BME280;18697;42.770;23.400;2023-06-10T00:57:00;95211.44;;;20.80;74.17
32197;BME280;18697;42.770;23.400;2023-06-10T00:59:28;95214.03;;;21.30;71.94
32197;BME280;18697;42.770;23.400;2023-06-10T01:01:53;95211.31;;;21.59;70.44
32197;BME280;18697;42.770;23.400;2023-06-10T01:04:20;95210.41;;;21.77;69.46
32197;BME280;18697;42.770;23.400;2023-06-10T01:10:02;95211.94;;;22.12;68.08
32197;BME280;18697;42.770;23.400;2023-06-10T01:15:01;95208.75;;;22.16;67.91
32197;BME280;18697;42.770;23.400;2023-06-10T01:17:28;95193.59;;;22.26;67.12
32197;BME280;18697;42.770;23.400;2023-06-10T01:19:55;95206.41;;;22.27;67.31
32197;BME280;18697;42.770;23.400;2023-06-10T01:22:21;95200.38;;;22.31;66.97
32197;BME280;18697;42.770;23.400;2023-06-10T01:24:48;95213.31;;;22.19;67.18
32197;BME280;18697;42.770;23.400;2023-06-10T01:27:15;95217.72;;;22.07;67.84
32197;BME280;18697;42.770;23.400;2023-06-10T01:29:46;95213.09;;;22.17;67.61
32197;BME280;18697;42.770;23.400;2023-06-10T01:32:34;95198.53;;;22.34;67.00
32197;BME280;18697;42.770;23.400;2023-06-10T01:35:02;95201.41;;;22.41;66.78
32197;BME280;18697;42.770;23.400;2023-06-10T01:37:30;95198.66;;;22.49;65.85
32197;BME280;18697;42.770;23.400;2023-06-10T01:39:58;95200.03;;;22.55;66.20
32197;BME280;18697;42.770;23.400;2023-06-10T01:42:25;95195.94;;;22.64;65.62
32197;BME280;18697;42.770;23.400;2023-06-10T01:44:51;95197.13;;;22.48;66.05
32197;BME280;18697;42.770;23.400;2023-06-10T01:47:17;95193.69;;;22.42;66.51
32197;BME280;18697;42.770;23.400;2023-06-10T01:49:43;95192.16;;;22.41;66.65
32197;BME280;18697;42.770;23.400;2023-06-10T01:52:08;95187.34;;;22.49;66.29
32197;BME280;18697;42.770;23.400;2023-06-10T01:54:33;95190.94;;;22.28;67.02
32197;BME280;18697;42.770;23.400;2023-06-10T01:57:01;95188.63;;;21.85;68.77
32197;BME280;18697;42.770;23.400;2023-06-10T01:59:27;95183.16;;;21.19;71.92
32197;BME280;18697;42.770;23.400;2023-06-10T02:01:52;95188.63;;;20.64;74.92
32197;BME280;18697;42.770;23.400;2023-06-10T02:04:18;95187.97;;;20.72;75.97
32197;BME280;18697;42.770;23.400;2023-06-10T02:06:43;95185.69;;;20.96;73.56
32197;BME280;18697;42.770;23.400;2023-06-10T02:09:09;95183.94;;;20.93;75.11
32197;BME280;18697;42.770;23.400;2023-06-10T02:11:34;95182.09;;;20.83;75.36
32197;BME280;18697;42.770;23.400;2023-06-10T02:13:59;95182.00;;;20.75;77.34
32197;BME280;18697;42.770;23.400;2023-06-10T02:16:25;95185.06;;;20.77;75.35
32197;BME280;18697;42.770;23.400;2023-06-10T02:18:51;95184.47;;;21.05;73.09
32197;BME280;18697;42.770;23.400;2023-06-10T02:21:17;95184.78;;;21.41;71.48
32197;BME280;18697;42.770;23.400;2023-06-10T02:23:42;95194.72;;;21.55;71.05
32197;BME280;18697;42.770;23.400;2023-06-10T02:26:08;95173.38;;;21.68;70.03
32197;BME280;18697;42.770;23.400;2023-06-10T02:28:33;95186.78;;;21.88;69.39
32197;BME280;18697;42.770;23.400;2023-06-10T02:30:58;95186.63;;;22.07;68.70
32197;BME280;18697;42.770;23.400;2023-06-10T02:33:24;95183.31;;;22.16;68.21
32197;BME280;18697;42.770;23.400;2023-06-10T02:35:50;95168.97;;;22.14;68.09
32197;BME280;18697;42.770;23.400;2023-06-10T02:38:15;95172.19;;;22.18;68.13
32197;BME280;18697;42.770;23.400;2023-06-10T02:40:42;95165.09;;;22.24;67.84
32197;BME280;18697;42.770;23.400;2023-06-10T02:43:09;95162.31;;;22.32;67.35
32197;BME280;18697;42.770;23.400;2023-06-10T02:45:34;95161.75;;;22.34;67.55
32197;BME280;18697;42.770;23.400;2023-06-10T02:47:59;95163.22;;;22.27;67.75
32197;BME280;18697;42.770;23.400;2023-06-10T02:50:25;95166.81;;;22.27;67.72
32197;BME280;18697;42.770;23.400;2023-06-10T02:52:50;95158.47;;;22.22;67.92
32197;BME280;18697;42.770;23.400;2023-06-10T02:55:16;95157.38;;;22.25;67.62
32197;BME280;18697;42.770;23.400;2023-06-10T02:57:41;95163.81;;;22.33;67.56
32197;BME280;18697;42.770;23.400;2023-06-10T03:00:07;95161.72;;;22.26;67.83
32197;BME280;18697;42.770;23.400;2023-06-10T03:02:37;95171.13;;;22.28;67.74
32197;BME280;18697;42.770;23.400;2023-06-10T03:05:04;95174.94;;;22.31;67.71
32197;BME280;18697;42.770;23.400;2023-06-10T03:07:30;95165.84;;;22.25;67.51
32197;BME280;18697;42.770;23.400;2023-06-10T03:09:56;95175.84;;;22.26;67.50
32197;BME280;18697;42.770;23.400;2023-06-10T03:12:21;95171.13;;;22.28;67.33
32197;BME280;18697;42.770;23.400;2023-06-10T03:14:47;95182.72;;;22.38;67.15
32197;BME280;18697;42.770;23.400;2023-06-10T03:17:12;95184.22;;;22.39;67.26
32197;BME280;18697;42.770;23.400;2023-06-10T03:19:37;95187.47;;;22.43;66.94
32197;BME280;18697;42.770;23.400;2023-06-10T03:22:11;95189.19;;;22.46;66.97
32197;BME280;18697;42.770;23.400;2023-06-10T03:24:37;95192.84;;;22.54;66.59
32197;BME280;18697;42.770;23.400;2023-06-10T03:27:06;95179.88;;;22.59;66.26
32197;BME280;18697;42.770;23.400;2023-06-10T03:29:32;95197.50;;;22.73;65.92
32197;BME280;18697;42.770;23.400;2023-06-10T03:31:57;95202.50;;;22.80;65.43
32197;BME280;18697;42.770;23.400;2023-06-10T03:34:22;95192.59;;;22.73;65.61
32197;BME280;18697;42.770;23.400;2023-06-10T03:36:48;95185.56;;;22.67;66.07
32197;BME280;18697;42.770;23.400;2023-06-10T03:39:15;95191.19;;;22.59;66.79
32197;BME280;18697;42.770;23.400;2023-06-10T03:41:41;95185.47;;;22.51;67.04
32197;BME280;18697;42.770;23.400;2023-06-10T03:44:06;95194.00;;;22.59;66.21
32197;BME280;18697;42.770;23.400;2023-06-10T03:46:32;95192.34;;;22.63;65.93
32197;BME280;18697;42.770;23.400;2023-06-10T03:48:57;95189.94;;;22.68;65.44
32197;BME280;18697;42.770;23.400;2023-06-10T03:51:26;95185.16;;;22.62;66.00
32197;BME280;18697;42.770;23.400;2023-06-10T03:53:51;95189.38;;;22.69;65.60
32197;BME280;18697;42.770;23.400;2023-06-10T03:56:16;95195.63;;;22.75;65.51
32197;BME280;18697;42.770;23.400;2023-06-10T03:58:42;95190.13;;;22.70;65.57
32197;BME280;18697;42.770;23.400;2023-06-10T04:01:07;95193.47;;;22.60;66.48
32197;BME280;18697;42.770;23.400;2023-06-10T04:03:32;95186.97;;;22.52;66.60
32197;BME280;18697;42.770;23.400;2023-06-10T04:05:58;95177.13;;;22.46;66.88
32197;BME280;18697;42.770;23.400;2023-06-10T04:08:23;95187.28;;;22.41;67.17
32197;BME280;18697;42.770;23.400;2023-06-10T04:10:49;95186.66;;;22.35;67.85
32197;BME280;18697;42.770;23.400;2023-06-10T04:13:14;95186.41;;;22.25;67.91
32197;BME280;18697;42.770;23.400;2023-06-10T04:15:40;95186.63;;;22.27;68.05
32197;BME280;18697;42.770;23.400;2023-06-10T04:18:06;95188.69;;;22.27;68.03
32197;BME280;18697;42.770;23.400;2023-06-10T04:20:31;95187.56;;;22.30;68.03
32197;BME280;18697;42.770;23.400;2023-06-10T04:22:57;95189.28;;;22.33;67.96
32197;BME280;18697;42.770;23.400;2023-06-10T04:25:22;95198.34;;;22.11;68.38
32197;BME280;18697;42.770;23.400;2023-06-10T04:27:49;95193.38;;;22.04;68.91
32197;BME280;18697;42.770;23.400;2023-06-10T04:30:16;95188.75;;;21.80;69.47
32197;BME280;18697;42.770;23.400;2023-06-10T04:32:41;95187.28;;;22.00;69.25
32197;BME280;18697;42.770;23.400;2023-06-10T04:35:07;95191.00;;;21.94;68.53
32197;BME280;18697;42.770;23.400;2023-06-10T04:37:33;95188.97;;;21.82;70.18
32197;BME280;18697;42.770;23.400;2023-06-10T04:39:58;95194.97;;;21.78;70.48
32197;BME280;18697;42.770;23.400;2023-06-10T04:42:24;95196.97;;;21.91;69.81
32197;BME280;18697;42.770;23.400;2023-06-10T04:44:50;95202.28;;;21.26;71.57
32197;BME280;18697;42.770;23.400;2023-06-10T04:47:15;95193.16;;;21.34;72.39
32197;BME280;18697;42.770;23.400;2023-06-10T04:49:42;95194.47;;;21.67;71.19
32197;BME280;18697;42.770;23.400;2023-06-10T04:52:07;95193.41;;;21.56;71.50
32197;BME280;18697;42.770;23.400;2023-06-10T04:54:33;95197.00;;;21.57;71.72
32197;BME280;18697;42.770;23.400;2023-06-10T04:56:58;95199.81;;;21.57;72.06
32197;BME280;18697;42.770;23.400;2023-06-10T04:59:25;95195.88;;;20.47;76.20
32197;BME280;18697;42.770;23.400;2023-06-10T05:01:51;95188.84;;;20.21;76.98
32197;BME280;18697;42.770;23.400;2023-06-10T05:04:16;95188.84;;;19.76;80.26
32197;BME280;18697;42.770;23.400;2023-06-10T05:06:42;95193.19;;;19.40;84.74
32197;BME280;18697;42.770;23.400;2023-06-10T05:09:07;95188.34;;;19.91;82.06
32197;BME280;18697;42.770;23.400;2023-06-10T05:11:33;95191.75;;;20.16;80.87
32197;BME280;18697;42.770;23.400;2023-06-10T05:13:58;95194.03;;;20.04;81.31
32197;BME280;18697;42.770;23.400;2023-06-10T05:16:23;95187.97;;;20.13;81.45
32197;BME280;18697;42.770;23.400;2023-06-10T05:18:49;95199.38;;;20.21;82.52
32197;BME280;18697;42.770;23.400;2023-06-10T05:21:16;95199.22;;;20.00;81.69
32197;BME280;18697;42.770;23.400;2023-06-10T05:23:41;95201.91;;;19.92;82.29
32197;BME280;18697;42.770;23.400;2023-06-10T05:26:06;95206.28;;;19.75;83.13
32197;BME280;18697;42.770;23.400;2023-06-10T05:28:32;95211.56;;;19.97;83.38
32197;BME280;18697;42.770;23.400;2023-06-10T05:30:57;95207.19;;;20.28;81.75
32197;BME280;18697;42.770;23.400;2023-06-10T05:33:23;95215.75;;;20.22;80.72
32197;BME280;18697;42.770;23.400;2023-06-10T05:35:48;95218.88;;;20.19;80.86
32197;BME280;18697;42.770;23.400;2023-06-10T05:38:14;95215.72;;;20.09;82.54
32197;BME280;18697;42.770;23.400;2023-06-10T05:40:39;95216.16;;;19.81;84.66
32197;BME280;18697;42.770;23.400;2023-06-10T05:43:05;95224.72;;;19.57;85.73
32197;BME280;18697;42.770;23.400;2023-06-10T05:45:30;95216.72;;;19.61;85.36
32197;BME280;18697;42.770;23.400;2023-06-10T05:47:58;95217.97;;;19.97;83.58
32197;BME280;18697;42.770;23.400;2023-06-10T05:50:24;95216.28;;;20.21;82.10
32197;BME280;18697;42.770;23.400;2023-06-10T05:52:50;95215.84;;;20.49;80.60
32197;BME280;18697;42.770;23.400;2023-06-10T05:55:17;95216.06;;;20.90;78.69
32197;BME280;18697;42.770;23.400;2023-06-10T05:57:42;95215.31;;;21.16;78.19
32197;BME280;18697;42.770;23.400;2023-06-10T06:00:08;95213.69;;;21.21;76.90
32197;BME280;18697;42.770;23.400;2023-06-10T06:02:34;95210.31;;;20.56;78.42
32197;BME280;18697;42.770;23.400;2023-06-10T06:04:59;95212.59;;;20.84;79.63
32197;BME280;18697;42.770;23.400;2023-06-10T06:07:26;95215.00;;;21.07;78.24
32197;BME280;18697;42.770;23.400;2023-06-10T06:09:52;95209.25;;;20.99;77.74
32197;BME280;18697;42.770;23.400;2023-06-10T06:12:17;95209.03;;;20.97;79.20
32197;BME280;18697;42.770;23.400;2023-06-10T06:14:42;95205.78;;;20.80;77.98
32197;BME280;18697;42.770;23.400;2023-06-10T06:17:08;95207.28;;;20.94;78.27
32197;BME280;18697;42.770;23.400;2023-06-10T06:19:33;95202.16;;;21.19;76.97
32197;BME280;18697;42.770;23.400;2023-06-10T06:21:59;95206.94;;;21.11;76.66
32197;BME280;18697;42.770;23.400;2023-06-10T06:24:24;95200.56;;;21.23;77.72
32197;BME280;18697;42.770;23.400;2023-06-10T06:26:50;95206.63;;;21.27;76.14
32197;BME280;18697;42.770;23.400;2023-06-10T06:29:15;95217.47;;;21.50;76.07
32197;BME280;18697;42.770;23.400;2023-06-10T06:31:40;95217.16;;;21.74;74.62
32197;BME280;18697;42.770;23.400;2023-06-10T06:34:06;95216.00;;;22.04;73.42
32197;BME280;18697;42.770;23.400;2023-06-10T06:36:31;95226.78;;;21.92;74.87
32197;BME280;18697;42.770;23.400;2023-06-10T06:38:57;95225.88;;;22.10;73.89
32197;BME280;18697;42.770;23.400;2023-06-10T06:41:25;95220.63;;;21.20;76.40
32197;BME280;18697;42.770;23.400;2023-06-10T06:43:51;95206.63;;;20.88;78.23
32197;BME280;18697;42.770;23.400;2023-06-10T06:46:16;95210.31;;;20.83;78.34
32197;BME280;18697;42.770;23.400;2023-06-10T06:48:42;95206.63;;;21.27;77.29
32197;BME280;18697;42.770;23.400;2023-06-10T06:51:07;95194.53;;;21.53;75.87
32197;BME280;18697;42.770;23.400;2023-06-10T06:53:33;95202.59;;;21.36;75.69
32197;BME280;18697;42.770;23.400;2023-06-10T06:55:58;95199.34;;;21.66;75.70
32197;BME280;18697;42.770;23.400;2023-06-10T06:58:23;95193.53;;;21.85;74.58
32197;BME280;18697;42.770;23.400;2023-06-10T07:00:49;95187.84;;;22.19;72.74
32197;BME280;18697;42.770;23.400;2023-06-10T07:03:14;95188.28;;;22.51;72.32
32197;BME280;18697;42.770;23.400;2023-06-10T07:05:40;95188.41;;;22.87;70.01
32197;BME280;18697;42.770;23.400;2023-06-10T07:08:06;95182.44;;;23.06;69.31
32197;BME280;18697;42.770;23.400;2023-06-10T07:10:31;95182.84;;;22.53;70.87
32197;BME280;18697;42.770;23.400;2023-06-10T07:12:56;95193.69;;;22.00;73.05
32197;BME280;18697;42.770;23.400;2023-06-10T07:15:22;95183.81;;;22.35;71.87
32197;BME280;18697;42.770;23.400;2023-06-10T07:17:47;95183.72;;;22.69;71.61
32197;BME280;18697;42.770;23.400;2023-06-10T07:20:13;95189.81;;;23.09;69.36
32197;BME280;18697;42.770;23.400;2023-06-10T07:22:40;95182.94;;;23.33;68.49
32197;BME280;18697;42.770;23.400;2023-06-10T07:25:06;95180.13;;;23.33;67.24
32197;BME280;18697;42.770;23.400;2023-06-10T07:27:31;95182.22;;;23.40;65.55
32197;BME280;18697;42.770;23.400;2023-06-10T07:29:57;95177.09;;;23.75;66.96
32197;BME280;18697;42.770;23.400;2023-06-10T07:32:22;95180.84;;;23.77;65.08
32197;BME280;18697;42.770;23.400;2023-06-10T07:34:49;95180.94;;;24.23;65.46
32197;BME280;18697;42.770;23.400;2023-06-10T07:37:15;95175.47;;;24.63;64.28
32197;BME280;18697;42.770;23.400;2023-06-10T07:39:41;95176.00;;;24.92;61.47
32197;BME280;18697;42.770;23.400;2023-06-10T07:42:07;95170.31;;;25.07;59.67
32197;BME280;18697;42.770;23.400;2023-06-10T07:44:32;95174.78;;;25.26;61.15
32197;BME280;18697;42.770;23.400;2023-06-10T07:46:58;95162.84;;;25.27;59.57
32197;BME280;18697;42.770;23.400;2023-06-10T07:49:23;95170.84;;;25.21;59.63
32197;BME280;18697;42.770;23.400;2023-06-10T07:51:50;95160.34;;;25.31;61.94
32197;BME280;18697;42.770;23.400;2023-06-10T07:54:15;95160.19;;;25.29;60.45
32197;BME280;18697;42.770;23.400;2023-06-10T07:56:41;95162.69;;;25.25;59.46
32197;BME280;18697;42.770;23.400;2023-06-10T07:59:06;95168.88;;;25.31;59.59
32197;BME280;18697;42.770;23.400;2023-06-10T08:01:33;95160.41;;;25.24;59.10
32197;BME280;18697;42.770;23.400;2023-06-10T08:03:58;95163.41;;;25.26;59.85
32197;BME280;18697;42.770;23.400;2023-06-10T08:06:23;95160.75;;;25.28;60.15
32197;BME280;18697;42.770;23.400;2023-06-10T08:08:49;95158.06;;;25.37;60.48
32197;BME280;18697;42.770;23.400;2023-06-10T08:11:14;95155.94;;;25.45;59.29
32197;BME280;18697;42.770;23.400;2023-06-10T08:13:40;95164.47;;;25.45;58.64
32197;BME280;18697;42.770;23.400;2023-06-10T08:16:05;95163.47;;;25.58;58.98
32197;BME280;18697;42.770;23.400;2023-06-10T08:18:31;95158.06;;;25.37;57.08
32197;BME280;18697;42.770;23.400;2023-06-10T08:20:57;95165.94;;;25.54;57.17
32197;BME280;18697;42.770;23.400;2023-06-10T08:23:22;95149.16;;;25.81;58.14
32197;BME280;18697;42.770;23.400;2023-06-10T08:25:48;95154.81;;;26.13;58.35
32197;BME280;18697;42.770;23.400;2023-06-10T08:28:13;95142.66;;;26.45;55.91
32197;BME280;18697;42.770;23.400;2023-06-10T08:30:38;95145.38;;;26.61;56.78
32197;BME280;18697;42.770;23.400;2023-06-10T08:33:04;95144.78;;;26.62;53.86
32197;BME280;18697;42.770;23.400;2023-06-10T08:35:29;95129.19;;;26.80;54.92
32197;BME280;18697;42.770;23.400;2023-06-10T08:37:55;95138.66;;;26.66;52.08
32197;BME280;18697;42.770;23.400;2023-06-10T08:40:20;95126.19;;;25.46;54.03
32197;BME280;18697;42.770;23.400;2023-06-10T08:45:29;95137.19;;;25.42;54.84
32197;BME280;18697;42.770;23.400;2023-06-10T08:47:57;95137.75;;;25.01;54.33
32197;BME280;18697;42.770;23.400;2023-06-10T08:50:23;95127.84;;;25.17;54.30
32197;BME280;18697;42.770;23.400;2023-06-10T08:52:51;95122.59;;;25.06;54.81
32197;BME280;18697;42.770;23.400;2023-06-10T08:55:32;95124.09;;;25.47;53.01
32197;BME280;18697;42.770;23.400;2023-06-10T08:58:01;95126.28;;;25.71;51.89
32197;BME280;18697;42.770;23.400;2023-06-10T09:00:28;95124.53;;;26.01;52.18
32197;BME280;18697;42.770;23.400;2023-06-10T09:02:57;95117.09;;;26.38;51.65
32197;BME280;18697;42.770;23.400;2023-06-10T09:05:23;95111.31;;;26.20;50.01
32197;BME280;18697;42.770;23.400;2023-06-10T09:07:51;95112.41;;;26.25;51.97
32197;BME280;18697;42.770;23.400;2023-06-10T09:10:17;95110.84;;;26.07;51.09
32197;BME280;18697;42.770;23.400;2023-06-10T09:12:42;95111.91;;;26.19;51.32
32197;BME280;18697;42.770;23.400;2023-06-10T09:15:08;95107.31;;;25.74;51.38
32197;BME280;18697;42.770;23.400;2023-06-10T09:17:34;95105.22;;;25.74;51.20
32197;BME280;18697;42.770;23.400;2023-06-10T09:20:01;95103.38;;;25.62;52.53
32197;BME280;18697;42.770;23.400;2023-06-10T09:22:28;95106.28;;;25.86;51.04
32197;BME280;18697;42.770;23.400;2023-06-10T09:25:05;95109.41;;;26.23;51.27
32197;BME280;18697;42.770;23.400;2023-06-10T09:27:32;95098.00;;;26.23;48.45
32197;BME280;18697;42.770;23.400;2023-06-10T09:29:58;95094.66;;;26.17;48.95
32197;BME280;18697;42.770;23.400;2023-06-10T09:32:24;95097.19;;;26.30;48.25
32197;BME280;18697;42.770;23.400;2023-06-10T09:34:49;95098.78;;;26.66;49.04
32197;BME280;18697;42.770;23.400;2023-06-10T09:37:24;95096.59;;;26.91;48.45
32197;BME280;18697;42.770;23.400;2023-06-10T09:40:11;95101.16;;;26.35;49.01
32197;BME280;18697;42.770;23.400;2023-06-10T09:42:38;95098.13;;;26.08;50.85
32197;BME280;18697;42.770;23.400;2023-06-10T09:45:05;95096.56;;;26.14;50.87
32197;BME280;18697;42.770;23.400;2023-06-10T09:47:32;95095.72;;;26.71;49.17
32197;BME280;18697;42.770;23.400;2023-06-10T09:49:57;95088.81;;;26.57;48.10
32197;BME280;18697;42.770;23.400;2023-06-10T09:52:24;95076.94;;;26.68;48.98
32197;BME280;18697;42.770;23.400;2023-06-10T09:54:53;95078.28;;;27.02;49.16
32197;BME280;18697;42.770;23.400;2023-06-10T09:57:20;95071.56;;;27.24;47.83
32197;BME280;18697;42.770;23.400;2023-06-10T09:59:46;95071.13;;;27.55;47.41
32197;BME280;18697;42.770;23.400;2023-06-10T10:02:16;95068.34;;;27.91;47.82
32197;BME280;18697;42.770;23.400;2023-06-10T10:04:43;95064.47;;;27.96;44.72
32197;BME280;18697;42.770;23.400;2023-06-10T10:07:09;95051.41;;;27.66;44.27
32197;BME280;18697;42.770;23.400;2023-06-10T10:09:38;95059.91;;;27.84;46.25
32197;BME280;18697;42.770;23.400;2023-06-10T10:12:14;95055.38;;;28.17;46.53
32197;BME280;18697;42.770;23.400;2023-06-10T10:14:45;95061.69;;;28.16;44.88
32197;BME280;18697;42.770;23.400;2023-06-10T10:17:11;95064.34;;;28.04;45.50
32197;BME280;18697;42.770;23.400;2023-06-10T10:19:48;95055.00;;;27.67;44.62
32197;BME280;18697;42.770;23.400;2023-06-10T10:22:20;95050.75;;;27.31;44.36
32197;BME280;18697;42.770;23.400;2023-06-10T10:24:52;95055.38;;;27.27;45.08
32197;BME280;18697;42.770;23.400;2023-06-10T10:27:27;95048.06;;;27.60;42.58
32197;BME280;18697;42.770;23.400;2023-06-10T10:29:54;95049.53;;;27.78;41.20
32197;BME280;18697;42.770;23.400;2023-06-10T10:32:29;95043.81;;;27.78;39.60
32197;BME280;18697;42.770;23.400;2023-06-10T10:37:25;95038.88;;;28.25;39.24
32197;BME280;18697;42.770;23.400;2023-06-10T10:39:51;95039.25;;;28.02;37.07
32197;BME280;18697;42.770;23.400;2023-06-10T10:42:18;95030.66;;;28.39;40.49
32197;BME280;18697;42.770;23.400;2023-06-10T10:44:44;95037.09;;;28.39;39.35
32197;BME280;18697;42.770;23.400;2023-06-10T10:47:10;95042.19;;;28.31;36.25
32197;BME280;18697;42.770;23.400;2023-06-10T10:49:37;95032.22;;;28.13;36.49
32197;BME280;18697;42.770;23.400;2023-06-10T10:52:04;95033.44;;;27.73;37.58
32197;BME280;18697;42.770;23.400;2023-06-10T10:54:35;95022.06;;;27.56;38.06
32197;BME280;18697;42.770;23.400;2023-06-10T11:02:42;95030.56;;;27.73;36.68
32197;BME280;18697;42.770;23.400;2023-06-10T11:05:10;95028.13;;;27.97;33.20
32197;BME280;18697;42.770;23.400;2023-06-10T11:07:36;95029.09;;;28.19;32.43
32197;BME280;18697;42.770;23.400;2023-06-10T11:10:13;95024.88;;;28.20;35.08
32197;BME280;18697;42.770;23.400;2023-06-10T11:15:11;95013.09;;;28.62;34.38
32197;BME280;18697;42.770;23.400;2023-06-10T11:17:36;95014.50;;;28.90;32.72
32197;BME280;18697;42.770;23.400;2023-06-10T11:20:02;95006.19;;;29.03;34.07
32197;BME280;18697;42.770;23.400;2023-06-10T11:22:28;95002.25;;;29.08;33.08
32197;BME280;18697;42.770;23.400;2023-06-10T11:24:53;95002.00;;;28.85;31.88
32197;BME280;18697;42.770;23.400;2023-06-10T11:27:23;94999.28;;;28.87;34.60
32197;BME280;18697;42.770;23.400;2023-06-10T11:30:18;94997.34;;;28.90;33.32
32197;BME280;18697;42.770;23.400;2023-06-10T11:32:44;94989.94;;;28.58;32.18
32197;BME280;18697;42.770;23.400;2023-06-10T11:35:10;94987.25;;;28.79;34.65
32197;BME280;18697;42.770;23.400;2023-06-10T11:37:36;94990.41;;;28.93;32.52
32197;BME280;18697;42.770;23.400;2023-06-10T11:40:02;94983.00;;;29.09;31.72
32197;BME280;18697;42.770;23.400;2023-06-10T11:42:27;94982.09;;;29.16;32.07
32197;BME280;18697;42.770;23.400;2023-06-10T11:44:54;94974.84;;;29.25;32.59
32197;BME280;18697;42.770;23.400;2023-06-10T11:47:20;94982.66;;;29.34;31.25
32197;BME280;18697;42.770;23.400;2023-06-10T11:49:49;94976.16;;;29.53;33.69
32197;BME280;18697;42.770;23.400;2023-06-10T11:52:29;94972.41;;;29.81;34.50
32197;BME280;18697;42.770;23.400;2023-06-10T11:55:03;94983.63;;;29.98;30.65
32197;BME280;18697;42.770;23.400;2023-06-10T11:57:29;94969.50;;;30.22;32.45
32197;BME280;18697;42.770;23.400;2023-06-10T11:59:55;94975.72;;;30.39;31.69
32197;BME280;18697;42.770;23.400;2023-06-10T12:02:21;94977.78;;;29.65;30.32
32197;BME280;18697;42.770;23.400;2023-06-10T12:04:47;94964.63;;;29.72;32.32
32197;BME280;18697;42.770;23.400;2023-06-10T12:07:19;94969.09;;;29.44;31.90
32197;BME280;18697;42.770;23.400;2023-06-10T12:09:45;94963.97;;;29.52;30.74
32197;BME280;18697;42.770;23.400;2023-06-10T12:12:10;94958.28;;;29.73;33.88
32197;BME280;18697;42.770;23.400;2023-06-10T12:14:59;94963.50;;;29.87;32.69
32197;BME280;18697;42.770;23.400;2023-06-10T12:20:01;94959.56;;;30.23;29.97
32197;BME280;18697;42.770;23.400;2023-06-10T12:22:48;94953.16;;;30.34;31.05
32197;BME280;18697;42.770;23.400;2023-06-10T12:25:14;94959.38;;;29.99;30.49
32197;BME280;18697;42.770;23.400;2023-06-10T12:27:49;94942.66;;;29.96;31.85
32197;BME280;18697;42.770;23.400;2023-06-10T12:30:19;94955.59;;;29.97;31.12
32197;BME280;18697;42.770;23.400;2023-06-10T12:32:46;94953.91;;;29.72;30.25
32197;BME280;18697;42.770;23.400;2023-06-10T12:35:16;94951.34;;;29.36;29.95
32197;BME280;18697;42.770;23.400;2023-06-10T12:37:53;94941.44;;;29.27;31.81
32197;BME280;18697;42.770;23.400;2023-06-10T12:40:25;94927.78;;;29.16;33.54
32197;BME280;18697;42.770;23.400;2023-06-10T12:42:51;94934.25;;;29.17;31.61
32197;BME280;18697;42.770;23.400;2023-06-10T12:45:29;94933.22;;;29.02;33.04
32197;BME280;18697;42.770;23.400;2023-06-10T12:50:31;94931.59;;;28.80;32.35
32197;BME280;18697;42.770;23.400;2023-06-10T12:52:57;94937.03;;;28.47;32.51
32197;BME280;18697;42.770;23.400;2023-06-10T12:55:22;94924.69;;;28.64;34.90
32197;BME280;18697;42.770;23.400;2023-06-10T12:57:49;94934.91;;;28.67;33.06
32197;BME280;18697;42.770;23.400;2023-06-10T13:00:15;94924.84;;;28.66;34.25
32197;BME280;18697;42.770;23.400;2023-06-10T13:02:41;94937.78;;;28.57;32.41
32197;BME280;18697;42.770;23.400;2023-06-10T13:05:07;94936.41;;;28.49;34.33
32197;BME280;18697;42.770;23.400;2023-06-10T13:07:32;94936.88;;;28.45;34.00
32197;BME280;18697;42.770;23.400;2023-06-10T13:09:58;94934.75;;;28.45;35.97
32197;BME280;18697;42.770;23.400;2023-06-10T13:12:25;94938.66;;;28.50;35.52